tititudorancea.com
Station Historical Data
Daily Summary for January 15, 2018 Units:  Metric    English   Both
« Previous Day
Next Day »
Daily Weekly Monthly Yearly Custom
  High: Low: Average:
Temperature: -17.8 °C 10.1 °C 16.8 °C
Dew Point: -17.8 °C 7.3 °C 11.1 °C
Humidity: Humidity % 48 % 70 %
Wind Speed: 0 km/h 0 km/h 13 km/h
Wind Gust: 0 km/h - -
Wind:- - SSW
Pressure: 0 hPa 1017.8 hPa -
Precipitation: 0 mm    
Historical Graphs
 
 
Ararat weather Find more about Weather in Ararat, AU


 



 


Tabular Data for January 15, 2018
Time Temperature Dew Point Pressure Wind Wind Speed Wind Gust Humidity Rainfall Rate (Hourly)
-17.8 °C -17.8 °C 0 hPa Calm     Humidity % 0 mm
00:08 11.9 °C 7.6 °C 1019.5 hPa South 6.8 km/h 11.1 km/h 75 % 0 mm
00:16 11.8 °C 7.7 °C 1019.5 hPa South 11.3 km/h 18.5 km/h 76 % 0 mm
00:23 11.7 °C 7.6 °C 1019.5 hPa South 5.8 km/h 9.3 km/h 76 % 0 mm
00:29 11.6 °C 7.7 °C 1019.5 hPa South 6.9 km/h 11.1 km/h 77 % 0 mm
00:42 11.4 °C 7.5 °C 1019.5 hPa South 5 km/h 9.3 km/h 77 % 0 mm
00:48 11.3 °C 7.6 °C 1019.5 hPa South 6.6 km/h 13 km/h 78 % 0 mm
01:03 11 °C 7.5 °C 1019.5 hPa North 7.6 km/h 11.1 km/h 79 % 0 mm
01:19 10.7 °C 7.3 °C 1019.2 hPa South 8.7 km/h 9.7 km/h 80 % 0 mm
01:28 10.6 °C 7.4 °C 1019.2 hPa South 6.4 km/h 13 km/h 81 % 0 mm
01:33 10.6 °C 7.4 °C 1019.2 hPa South 3.5 km/h 9.3 km/h 81 % 0 mm
01:42 10.5 °C 7.4 °C 1019.2 hPa South 5 km/h 7.4 km/h 81 % 0 mm
01:49 10.4 °C 7.3 °C 1018.8 hPa South 8.9 km/h 13 km/h 81 % 0 mm
01:58 10.3 °C 7.4 °C 1018.8 hPa South 7.1 km/h 11.1 km/h 82 % 0 mm
02:15 10.2 °C 7.4 °C 1018.8 hPa South 7.2 km/h 7.4 km/h 83 % 0 mm
02:24 10.2 °C 7.4 °C 1018.8 hPa North 4.2 km/h 7.4 km/h 83 % 0 mm
02:29 10.2 °C 7.6 °C 1018.8 hPa South 5.6 km/h 5.6 km/h 84 % 0 mm
02:37 10.2 °C 7.6 °C 1018.8 hPa South 3.2 km/h 5.6 km/h 84 % 0 mm
02:44 10.1 °C 7.6 °C 1018.8 hPa South 4.7 km/h 7.4 km/h 84 % 0 mm
02:53 10.1 °C 7.7 °C 1018.8 hPa South 6.9 km/h 7.4 km/h 85 % 0 mm
03:03 10.3 °C 8.1 °C 1018.8 hPa North 3.5 km/h 9.3 km/h 86 % 0 mm
03:10 10.5 °C 8.3 °C 1018.5 hPa South 5.1 km/h 11.3 km/h 86 % 0 mm
03:17 10.8 °C 8.6 °C 1018.5 hPa South 4.8 km/h 7.4 km/h 86 % 0 mm
03:34 11.2 °C 8.8 °C 1018.2 hPa North 6.6 km/h 13 km/h 85 % 0 mm
03:46 11.4 °C 9 °C 1018.2 hPa North 5 km/h 7.4 km/h 85 % 0 mm
04:12 11.9 °C 9.5 °C 1017.8 hPa South 9.8 km/h 14.8 km/h 85 % 0 mm
04:23 12.2 °C 9.6 °C 1018.2 hPa North 9.2 km/h 11.1 km/h 84 % 0 mm
04:34 12.3 °C 9.7 °C 1018.2 hPa North 8.7 km/h 11.3 km/h 84 % 0 mm
04:41 12.3 °C 9.7 °C 1018.2 hPa South 7.7 km/h 16.1 km/h 84 % 0 mm
04:52 12.3 °C 10 °C 1018.2 hPa South 10.3 km/h 18.5 km/h 86 % 0 mm
05:00 12.3 °C 10 °C 1018.2 hPa South 4.5 km/h 7.4 km/h 86 % 0 mm
05:06 12.4 °C 10.1 °C 1018.2 hPa South 5.8 km/h 13 km/h 86 % 0 mm
05:23 12.7 °C 10.4 °C 1018.2 hPa South 8.4 km/h 14.8 km/h 86 % 0 mm
05:33 12.8 °C 10.6 °C 1018.5 hPa North 11.3 km/h 18.5 km/h 86 % 0 mm
05:50 12.9 °C 10.8 °C 1018.2 hPa SSW 9.8 km/h 11.3 km/h 87 % 0 mm
05:59 13.1 °C 11.2 °C 1018.5 hPa North 8 km/h 11.1 km/h 88 % 0 mm
06:06 13.2 °C 11.4 °C 1018.5 hPa North 10.9 km/h 18.5 km/h 89 % 0 mm
06:13 13.2 °C 11.6 °C 1018.5 hPa SSW 15.6 km/h 20.4 km/h 90 % 0 mm
06:20 13.3 °C 11.7 °C 1018.5 hPa SSW 10.6 km/h 25.9 km/h 90 % 0 mm
06:28 13.3 °C 11.7 °C 1018.5 hPa North 11.3 km/h 20.4 km/h 90 % 0 mm
06:39 13.3 °C 11.8 °C 1018.5 hPa South 6.8 km/h 16.7 km/h 91 % 0 mm
06:51 13.3 °C 12.1 °C 1018.8 hPa South 8.7 km/h 16.7 km/h 92 % 0 mm
07:00 13.3 °C 12.1 °C 1018.8 hPa South 13.8 km/h 20.4 km/h 92 % 0 mm
07:24 13.4 °C 12.3 °C 1019.2 hPa South 9.3 km/h 14.5 km/h 93 % 0 mm
07:58 13.8 °C 12.7 °C 1019.2 hPa South 11.6 km/h 18.5 km/h 93 % 0 mm
08:03 13.9 °C 12.8 °C 1019.2 hPa South 9.2 km/h 13 km/h 93 % 0 mm
08:08 14.1 °C 13 °C 1019.5 hPa North 10.1 km/h 16.7 km/h 93 % 0 mm
08:17 14.4 °C 13.2 °C 1019.5 hPa North 8.5 km/h 16.7 km/h 92 % 0 mm
08:25 14.6 °C 13.2 °C 1019.5 hPa North 19.2 km/h 25.9 km/h 91 % 0 mm
08:31 14.8 °C 13.2 °C 1019.5 hPa SSE 12.1 km/h 18.5 km/h 90 % 0 mm
08:52 14.8 °C 13.2 °C 1019.9 hPa North 19.3 km/h 33.8 km/h 90 % 0 mm
09:05 14.9 °C 13.3 °C 1019.9 hPa North 9.7 km/h 18.5 km/h 90 % 0 mm
09:16 15.3 °C 13 °C 1020.2 hPa SSW 10.1 km/h 16.7 km/h 86 % 0 mm
09:21 15.6 °C 12.6 °C 1019.9 hPa South 19.2 km/h 25.9 km/h 82 % 0 mm
09:28 16 °C 12.6 °C 1020.2 hPa South 16.1 km/h 18.5 km/h 80 % 0 mm
09:46 16.5 °C 12.3 °C 1020.2 hPa SE 10.6 km/h 20.4 km/h 76 % 0 mm
10:00 16.9 °C 12.3 °C 1020.2 hPa South 13.7 km/h 20.4 km/h 74 % 0 mm
10:20 18.2 °C 12.4 °C 1020.5 hPa South 16.6 km/h 20.4 km/h 69 % 0 mm
10:26 18.5 °C 12.5 °C 1020.2 hPa SW 12.7 km/h 27.4 km/h 68 % 0 mm
10:35 18.4 °C 12.7 °C 1020.2 hPa South 14.6 km/h 14.8 km/h 69 % 0 mm
10:41 18.7 °C 12.7 °C 1020.2 hPa South 11.1 km/h 31.5 km/h 68 % 0 mm
10:46 19.2 °C 12.4 °C 1020.2 hPa South 16.9 km/h 18.5 km/h 65 % 0 mm
11:27 20.2 °C 12.2 °C 1020.2 hPa South 19 km/h 27.8 km/h 60 % 0 mm
11:34 20.3 °C 11.7 °C 1020.2 hPa South 24.6 km/h 35.2 km/h 58 % 0 mm
11:51 21 °C 11.3 °C 1020.2 hPa SSE 20.4 km/h 27.8 km/h 54 % 0 mm
12:03 21.2 °C 11.5 °C 1020.2 hPa South 16.1 km/h 31.5 km/h 54 % 0 mm
12:13 21.1 °C 12.2 °C 1019.9 hPa South 12.9 km/h 20.4 km/h 57 % 0 mm
12:34 22.2 °C 11.6 °C 1019.9 hPa SSE 15.9 km/h 24.1 km/h 51 % 0 mm
12:48 22.3 °C 10.8 °C 1019.9 hPa SSE 18.2 km/h 27.8 km/h 48 % 0 mm
13:04 22.5 °C 11.2 °C 1019.9 hPa South 16.7 km/h 29.6 km/h 49 % 0 mm
13:10 22.9 °C 11.3 °C 1019.5 hPa South 14.5 km/h 24.1 km/h 48 % 0 mm
13:26 22.9 °C 11.7 °C 1019.5 hPa SSW 17.9 km/h 27.8 km/h 49 % 0 mm
13:32 23.1 °C 12.4 °C 1019.2 hPa SSW 15.8 km/h 20.4 km/h 51 % 0 mm
13:37 23.2 °C 12.5 °C 1019.2 hPa SE 7.7 km/h 18.5 km/h 51 % 0 mm
13:47 23.3 °C 12.6 °C 1019.2 hPa South 16.3 km/h 29.6 km/h 51 % 0 mm
13:54 23.2 °C 12.2 °C 1018.8 hPa South 11.3 km/h 27.8 km/h 50 % 0 mm
14:04 23.9 °C 12.8 °C 1018.8 hPa SE 21.1 km/h 29.6 km/h 50 % 0 mm
14:12 23.9 °C 12.5 °C 1018.8 hPa South 21.4 km/h 21.4 km/h 49 % 0 mm
14:22 24.2 °C 13.1 °C 1018.8 hPa South 11.9 km/h 20.4 km/h 50 % 0 mm
14:31 24.3 °C 12.9 °C 1018.5 hPa South 23.5 km/h 31.5 km/h 49 % 0 mm
14:36 24.2 °C 13.1 °C 1018.5 hPa South 15.8 km/h 24.1 km/h 50 % 0 mm
14:42 24.4 °C 13.3 °C 1018.5 hPa South 14.8 km/h 20.4 km/h 50 % 0 mm
14:51 24.4 °C 13.3 °C 1018.5 hPa SE 20.1 km/h 31.5 km/h 50 % 0 mm
14:56 24.4 °C 13.3 °C 1018.5 hPa South 27.4 km/h 38.9 km/h 50 % 0 mm
15:02 24.1 °C 13.3 °C 1018.5 hPa ESE 24.9 km/h 40.7 km/h 51 % 0 mm
15:08 24.2 °C 14 °C 1018.5 hPa SSE 14.6 km/h 22.2 km/h 53 % 0 mm
15:30 24.4 °C 13.9 °C 1018.5 hPa SE 17.5 km/h 20.9 km/h 52 % 0 mm
15:35 23.8 °C 13.9 °C 1018.5 hPa South 20.3 km/h 25.9 km/h 54 % 0 mm
15:40 23.9 °C 14 °C 1018.5 hPa SSE 23 km/h 31.5 km/h 54 % 0 mm
15:53 23.6 °C 14.1 °C 1018.5 hPa SE 15.1 km/h 22.5 km/h 55 % 0 mm
16:03 24.2 °C 14 °C 1018.2 hPa South 20.6 km/h 31.5 km/h 53 % 0 mm
16:16 23.8 °C 13.9 °C 1018.5 hPa SSE 19.2 km/h 24.1 km/h 54 % 0 mm
16:21 23.4 °C 13.9 °C 1018.2 hPa ESE 21.7 km/h 27.8 km/h 55 % 0 mm
16:26 23.1 °C 14.1 °C 1018.2 hPa South 15.1 km/h 27.8 km/h 57 % 0 mm
16:37 23.1 °C 14.1 °C 1018.2 hPa South 20.9 km/h 31.5 km/h 57 % 0 mm
16:53 22.9 °C 14.4 °C 1018.2 hPa North 10.9 km/h 24.1 km/h 59 % 0 mm
17:01 23.2 °C 14.2 °C 1018.2 hPa SSE 14.8 km/h 25.9 km/h 57 % 0 mm
17:08 22.9 °C 14.2 °C 1018.2 hPa South 17.9 km/h 24.1 km/h 58 % 0 mm
17:21 22.3 °C 14.1 °C 1018.2 hPa SE 12.6 km/h 27.4 km/h 60 % 0 mm
17:27 22.3 °C 13.6 °C 1018.2 hPa SE 19.6 km/h 22.2 km/h 58 % 0 mm
17:32 22.4 °C 13.7 °C 1018.2 hPa South 12.9 km/h 18.5 km/h 58 % 0 mm
17:38 22.7 °C 13.7 °C 1018.2 hPa SSW 20.3 km/h 31.5 km/h 57 % 0 mm
18:00 22.9 °C 13.4 °C 1018.2 hPa South 20.4 km/h 29.6 km/h 55 % 0 mm
18:06 22.5 °C 13.3 °C 1018.2 hPa South 12.6 km/h 29.6 km/h 56 % 0 mm
18:15 22.6 °C 13.9 °C 1018.2 hPa SSE 15.9 km/h 25.9 km/h 58 % 0 mm
18:24 22.6 °C 13.7 °C 1018.2 hPa SSE 14.2 km/h 29.6 km/h 57 % 0 mm
18:29 22.5 °C 13.3 °C 1018.2 hPa SSW 17.4 km/h 38.9 km/h 56 % 0 mm
18:48 22.4 °C 12.9 °C 1018.5 hPa SW 26.1 km/h 33.3 km/h 55 % 0 mm
18:53 22.1 °C 12.9 °C 1018.5 hPa SSE 15.9 km/h 25.9 km/h 56 % 0 mm
18:59 22.1 °C 12.7 °C 1018.5 hPa South 21.7 km/h 31.5 km/h 55 % 0 mm
19:04 22.1 °C 12.4 °C 1018.5 hPa SSE 21.1 km/h 31.5 km/h 54 % 0 mm
19:09 22.1 °C 12.4 °C 1018.5 hPa SSE 21.1 km/h 31.5 km/h 54 % 0 mm
21:16 16.8 °C 9.4 °C 1019.9 hPa Calm   16.1 km/h 62 % 0 mm
21:30 16.2 °C 9.8 °C 1019.9 hPa SSW 10.8 km/h 22.2 km/h 66 % 0 mm
21:44 15.6 °C 9.7 °C 1020.2 hPa South 11.3 km/h 16.1 km/h 68 % 0 mm
22:01 15 °C 9.8 °C 1020.5 hPa SSW 18.5 km/h 24.1 km/h 71 % 0 mm
22:11 14.6 °C 9.6 °C 1020.5 hPa North 14.8 km/h 20.4 km/h 72 % 0 mm
22:17 14.4 °C 9.6 °C 1020.5 hPa SSW 18.2 km/h 22.2 km/h 73 % 0 mm
22:22 14.2 °C 9.7 °C 1020.5 hPa South 11.1 km/h 18.5 km/h 74 % 0 mm
22:44 13.5 °C 9.7 °C 1020.9 hPa South 17.7 km/h 29.6 km/h 78 % 0 mm
22:49 13.4 °C 9.6 °C 1020.9 hPa South 11.9 km/h 18.5 km/h 78 % 0 mm
23:04 12.9 °C 9.6 °C 1021.2 hPa South 13.2 km/h 20.4 km/h 80 % 0 mm
23:12 12.7 °C 9.6 °C 1020.9 hPa SSW 13.7 km/h 18.5 km/h 81 % 0 mm
23:35 12.2 °C 9.4 °C 1020.9 hPa South 12.9 km/h 24.1 km/h 83 % 0 mm
23:46 12 °C 9.4 °C 1021.2 hPa South 14.6 km/h 31.5 km/h 84 % 0 mm
Ararat Weather
Compliments of Weather Underground - 1.5 mb
Click here to send mail.


ABOUT

Live weather data from Ararat, Victoria, Australia, 3377
Data uploaded from Cumulus every 5 minutes to Weather Underground.
This site then downloads the raw data for formatting and display.
Metric and imperial data can be displayed. Graphs and historical data available.
Includes Sun and Moon times and rain image live from BOM.

Check out Ararat Weather on Facebook, Twitter and Google +

Help support ongoing costs by checking out the ads





Follow @AraratWeather